createdAt,value
2018-07-27T00:00:38.898Z,49.62
2018-07-27T00:01:38.898Z,49.11
2018-07-27T00:02:38.890Z,49.47
2018-07-27T00:03:38.922Z,49.17
2018-07-27T00:04:38.930Z,48.96
2018-07-27T00:05:38.887Z,48.87
2018-07-27T00:06:38.905Z,48.71
2018-07-27T00:07:39.003Z,49.13
2018-07-27T00:08:38.914Z,49.18
2018-07-27T00:09:38.914Z,49.01
2018-07-27T00:10:38.965Z,48.83
2018-07-27T00:11:38.903Z,48.8
2018-07-27T00:12:38.905Z,48.4
2018-07-27T00:13:38.927Z,48.81
2018-07-27T00:14:38.885Z,48.88
2018-07-27T00:15:39.020Z,50.14
2018-07-27T00:16:38.949Z,50.19
2018-07-27T00:17:38.898Z,50.5
2018-07-27T00:18:39.075Z,48.99
2018-07-27T00:19:38.977Z,49.16
2018-07-27T00:20:38.962Z,49.59
2018-07-27T00:21:39.085Z,49.3
2018-07-27T00:22:38.948Z,50.03
2018-07-27T00:23:39.015Z,49.23
2018-07-27T00:24:38.924Z,49.65
2018-07-27T00:25:38.994Z,49.62
2018-07-27T00:26:38.946Z,50.75
2018-07-27T00:27:38.921Z,50.12
2018-07-27T00:28:38.950Z,49.35
2018-07-27T00:29:39.037Z,49.38
2018-07-27T00:30:38.946Z,49.84
2018-07-27T00:31:38.933Z,49.5
2018-07-27T00:32:38.942Z,49.7
2018-07-27T00:33:38.977Z,49.69
2018-07-27T00:34:38.992Z,49.78
2018-07-27T00:35:38.976Z,49.63
2018-07-27T00:36:38.948Z,50.18
2018-07-27T00:37:38.943Z,50.18
2018-07-27T00:38:38.946Z,49.8
2018-07-27T00:39:39.037Z,49.84
2018-07-27T00:40:38.944Z,49.79
2018-07-27T00:41:38.964Z,49.74
2018-07-27T00:42:39.066Z,49.96
2018-07-27T00:43:38.948Z,50.15
2018-07-27T00:44:39.122Z,50.09
2018-07-27T00:45:38.961Z,49.72
2018-07-27T00:46:38.945Z,49.48
2018-07-27T00:47:38.957Z,49.26
2018-07-27T00:48:38.970Z,49.76
2018-07-27T00:49:38.971Z,50.17
2018-07-27T00:50:38.954Z,50.75
2018-07-27T00:51:38.965Z,50.05
2018-07-27T00:52:38.953Z,50.28
2018-07-27T00:53:38.941Z,49.34
2018-07-27T00:54:38.944Z,50.1
2018-07-27T00:55:38.956Z,50.27
2018-07-27T00:56:38.973Z,49.94
2018-07-27T00:57:38.975Z,50.63
2018-07-27T00:58:38.989Z,50.25
2018-07-27T00:59:38.965Z,50.59
2018-07-27T01:00:38.992Z,50.1
2018-07-27T01:01:38.975Z,50.48
2018-07-27T01:02:38.971Z,50.67
2018-07-27T01:03:38.963Z,50.95
2018-07-27T01:04:38.998Z,50.7
2018-07-27T01:05:39.200Z,50.84
2018-07-27T01:06:38.991Z,50.89
2018-07-27T01:07:39.052Z,51.18
2018-07-27T01:08:39.007Z,50.89
2018-07-27T01:09:39.007Z,51.1
2018-07-27T01:10:39.028Z,51.25
2018-07-27T01:11:38.981Z,50.63
2018-07-27T01:12:39.004Z,51.16
2018-07-27T01:13:39.024Z,51.46
2018-07-27T01:14:38.982Z,51.43
2018-07-27T01:15:38.997Z,51.63
2018-07-27T01:16:38.979Z,51.35
2018-07-27T01:17:39.101Z,50.87
2018-07-27T01:18:39.018Z,51.52
2018-07-27T01:19:38.995Z,51.89
2018-07-27T01:20:39.021Z,51.42
2018-07-27T01:21:39.061Z,51.57
2018-07-27T01:22:39.026Z,51.34
2018-07-27T01:23:39.215Z,51.42
2018-07-27T01:24:39.045Z,51.51
2018-07-27T01:25:39.024Z,51.22
2018-07-27T01:26:39.048Z,51.26
2018-07-27T01:27:39.194Z,51.39
2018-07-27T01:28:39.046Z,51.11
2018-07-27T01:29:39.234Z,51.06
2018-07-27T01:30:38.999Z,51.03
2018-07-27T01:31:39.156Z,50.78
2018-07-27T01:32:39.081Z,50.97
2018-07-27T01:33:39.006Z,51.01
2018-07-27T01:34:39.204Z,51.32
2018-07-27T01:35:39.006Z,51.06
2018-07-27T01:36:39.026Z,50.83
2018-07-27T01:37:39.073Z,50.44
2018-07-27T01:38:39.053Z,50.55
2018-07-27T01:39:39.053Z,51.43
2018-07-27T01:40:39.032Z,51.74
2018-07-27T01:41:39.057Z,51.49
2018-07-27T01:42:39.062Z,51.79
2018-07-27T01:43:39.113Z,51.8
2018-07-27T01:44:39.223Z,52.1
2018-07-27T01:45:39.026Z,51.63
2018-07-27T01:46:39.070Z,51.44
2018-07-27T01:47:39.021Z,51.41
2018-07-27T01:48:39.110Z,51.8
2018-07-27T01:49:39.049Z,51.57
2018-07-27T01:50:39.141Z,51.45
2018-07-27T01:51:39.200Z,51.08
2018-07-27T01:52:39.039Z,51.48
2018-07-27T01:53:39.038Z,51.86
2018-07-27T01:54:39.119Z,51.79
2018-07-27T01:55:39.107Z,51.83
2018-07-27T01:56:39.326Z,52.03
2018-07-27T01:57:39.046Z,52.21
2018-07-27T01:58:39.073Z,52.34
2018-07-27T01:59:39.052Z,52.29
2018-07-27T02:00:39.075Z,52.92
2018-07-27T02:01:39.136Z,52.9
2018-07-27T02:02:39.053Z,52.61
2018-07-27T02:03:39.056Z,52.8
2018-07-27T02:04:39.068Z,52.98
2018-07-27T02:05:39.027Z,53.21
2018-07-27T02:06:39.055Z,53.37
2018-07-27T02:07:39.040Z,53.63
2018-07-27T02:08:39.044Z,53.75
2018-07-27T02:09:39.045Z,53.99
2018-07-27T02:10:39.054Z,53.55
2018-07-27T02:11:39.043Z,53.69
2018-07-27T02:12:39.058Z,53.21
2018-07-27T02:13:39.067Z,53.73
2018-07-27T02:14:39.074Z,53.54
2018-07-27T02:15:39.064Z,53.05
2018-07-27T02:16:39.089Z,52.63
2018-07-27T02:17:39.082Z,53.65
2018-07-27T02:18:39.066Z,53.74
2018-07-27T02:19:39.068Z,53.06
2018-07-27T02:20:39.073Z,53.92
2018-07-27T02:21:39.082Z,53.59
2018-07-27T02:22:39.084Z,54.3
2018-07-27T02:23:39.126Z,54.41
2018-07-27T02:24:39.178Z,53.85
2018-07-27T02:25:39.096Z,54.1
2018-07-27T02:26:39.221Z,53.57
2018-07-27T02:27:39.095Z,53.77
2018-07-27T02:28:39.078Z,53.16
2018-07-27T02:29:39.174Z,53
2018-07-27T02:30:39.088Z,53.31
2018-07-27T02:31:39.077Z,53.08
2018-07-27T02:32:39.294Z,53.55
2018-07-27T02:33:39.199Z,54.69
2018-07-27T02:34:39.089Z,53.63
2018-07-27T02:35:39.119Z,54.12
2018-07-27T02:36:39.119Z,53.6
2018-07-27T02:37:39.317Z,54.14
2018-07-27T02:38:39.088Z,54.42
2018-07-27T02:39:39.117Z,54.69
2018-07-27T02:40:39.102Z,55.19
2018-07-27T02:41:39.103Z,55.13
2018-07-27T02:42:39.111Z,55.5
2018-07-27T02:43:39.090Z,55.79
2018-07-27T02:44:39.160Z,55.13
2018-07-27T02:45:39.216Z,55.01
2018-07-27T02:46:39.147Z,55.13
2018-07-27T02:47:39.152Z,55.3
2018-07-27T02:48:39.173Z,55.77
2018-07-27T02:49:39.195Z,54.71
2018-07-27T02:50:39.116Z,54.4
2018-07-27T02:51:39.243Z,55.25
2018-07-27T02:52:39.250Z,54.78
2018-07-27T02:53:39.143Z,55.36
2018-07-27T02:54:39.139Z,54.7
2018-07-27T02:55:39.108Z,56.04
2018-07-27T02:56:39.144Z,55.25
2018-07-27T02:57:39.437Z,54.82
2018-07-27T02:58:39.175Z,56.2
2018-07-27T02:59:39.207Z,55.65
2018-07-27T03:00:39.299Z,55.16
2018-07-27T03:01:39.163Z,54.88
2018-07-27T03:02:39.147Z,56.26
2018-07-27T03:03:39.120Z,55.98
2018-07-27T03:04:39.224Z,56.45
2018-07-27T03:05:39.317Z,56.28
2018-07-27T03:06:39.133Z,56.13
2018-07-27T03:07:39.118Z,56.46
2018-07-27T03:08:39.144Z,55.86
2018-07-27T03:09:39.206Z,55.94
2018-07-27T03:10:39.145Z,55.63
2018-07-27T03:11:39.130Z,55.73
2018-07-27T03:12:39.171Z,56.07
2018-07-27T03:13:39.259Z,56.47
2018-07-27T03:14:39.340Z,57
2018-07-27T03:15:39.144Z,57.11
2018-07-27T03:16:39.153Z,56.44
2018-07-27T03:17:39.189Z,56.78
2018-07-27T03:18:39.156Z,57.49
2018-07-27T03:19:39.148Z,58.45
2018-07-27T03:20:39.158Z,58.28
2018-07-27T03:21:39.168Z,58.26
2018-07-27T03:22:39.141Z,58.62
2018-07-27T03:23:39.138Z,58.71
2018-07-27T03:24:39.295Z,58.96
2018-07-27T03:25:39.155Z,58.82
2018-07-27T03:26:39.143Z,58.95
2018-07-27T03:27:39.188Z,59.74
2018-07-27T03:28:39.153Z,59.45
2018-07-27T03:29:39.257Z,59.93
2018-07-27T03:30:39.165Z,59.61
2018-07-27T03:31:39.162Z,59.87
2018-07-27T03:32:39.159Z,59.97
2018-07-27T03:33:39.192Z,59.6
2018-07-27T03:34:39.194Z,59.24
2018-07-27T03:35:39.187Z,59.83
2018-07-27T03:36:39.179Z,59.82
2018-07-27T03:37:39.164Z,59.96
2018-07-27T03:38:39.186Z,60.35
2018-07-27T03:39:39.182Z,60.16
2018-07-27T03:40:39.278Z,59.94
2018-07-27T03:41:39.196Z,60.23
2018-07-27T03:42:39.236Z,59.69
2018-07-27T03:43:39.221Z,59.81
2018-07-27T03:44:39.169Z,60.04
2018-07-27T03:45:39.169Z,60.02
2018-07-27T03:46:39.228Z,60.15
2018-07-27T03:47:39.259Z,60.39
2018-07-27T03:48:39.380Z,60.42
2018-07-27T03:49:39.181Z,60.32
2018-07-27T03:50:39.208Z,60.5
2018-07-27T03:51:39.247Z,60.45
2018-07-27T03:52:39.228Z,60.18
2018-07-27T03:53:39.214Z,60.42
2018-07-27T03:54:39.176Z,61.05
2018-07-27T03:55:39.182Z,60.37
2018-07-27T03:56:39.229Z,59.81
2018-07-27T03:57:39.252Z,59.05
2018-07-27T03:58:39.176Z,59.62
2018-07-27T03:59:39.265Z,59.15
2018-07-27T04:00:39.415Z,60.22
2018-07-27T04:01:39.180Z,60.4
2018-07-27T04:02:39.266Z,60.08
2018-07-27T04:03:39.382Z,60.4
2018-07-27T04:04:39.192Z,60.67
2018-07-27T04:05:39.273Z,60.02
2018-07-27T04:06:39.195Z,60.45
2018-07-27T04:07:39.230Z,61.05
2018-07-27T04:08:39.266Z,60.3
2018-07-27T04:09:39.214Z,60.32
2018-07-27T04:10:39.207Z,61.11
2018-07-27T04:11:39.293Z,60.36
2018-07-27T04:12:39.194Z,60.33
2018-07-27T04:13:39.248Z,60.68
2018-07-27T04:14:39.296Z,59.96
2018-07-27T04:15:39.214Z,60.18
2018-07-27T04:16:39.408Z,60.85
2018-07-27T04:17:39.216Z,60.77
2018-07-27T04:18:39.252Z,61.24
2018-07-27T04:19:39.299Z,60.86
2018-07-27T04:20:39.211Z,60.56
2018-07-27T04:21:39.294Z,60.91
2018-07-27T04:22:39.326Z,60.71
2018-07-27T04:23:39.247Z,60.66
2018-07-27T04:24:39.244Z,60.58
2018-07-27T04:25:39.218Z,60.73
2018-07-27T04:26:39.257Z,60.82
2018-07-27T04:27:39.245Z,60.28
2018-07-27T04:28:39.355Z,60.71
2018-07-27T04:29:39.255Z,60.78
2018-07-27T04:30:39.285Z,61.15
2018-07-27T04:31:39.298Z,61.56
2018-07-27T04:32:39.238Z,61.17
2018-07-27T04:33:39.240Z,61.32
2018-07-27T04:34:39.265Z,61.38
2018-07-27T04:35:39.356Z,61.13
2018-07-27T04:36:39.233Z,60.67
2018-07-27T04:37:39.281Z,61.25
2018-07-27T04:38:39.259Z,61.57
2018-07-27T04:39:39.240Z,61.13
2018-07-27T04:40:39.257Z,60.93
2018-07-27T04:41:39.265Z,60.84
2018-07-27T04:42:39.246Z,61.31
2018-07-27T04:43:39.252Z,60.35
2018-07-27T04:44:39.254Z,60.97
2018-07-27T04:45:39.238Z,61.19
2018-07-27T04:46:39.281Z,61.96
2018-07-27T04:47:39.251Z,62.75
2018-07-27T04:48:39.243Z,62.44
2018-07-27T04:49:39.303Z,61.74
2018-07-27T04:50:39.244Z,61.83
2018-07-27T04:51:39.276Z,61.75
2018-07-27T04:52:39.255Z,61.33
2018-07-27T04:53:39.317Z,61.75
2018-07-27T04:54:39.288Z,60.65
2018-07-27T04:55:39.279Z,61.18
2018-07-27T04:56:39.438Z,61.11
2018-07-27T04:57:39.352Z,61.6
2018-07-27T04:58:39.301Z,60.93
2018-07-27T04:59:39.368Z,61.6
2018-07-27T05:00:39.291Z,62.14
2018-07-27T05:01:39.404Z,61.9
2018-07-27T05:02:39.364Z,61.6
2018-07-27T05:03:39.304Z,60.71
2018-07-27T05:04:39.310Z,61.3
2018-07-27T05:05:39.305Z,61.31
2018-07-27T05:06:39.303Z,61.32
2018-07-27T05:07:39.459Z,61.44
2018-07-27T05:08:39.363Z,61.62
2018-07-27T05:09:39.326Z,61.53
2018-07-27T05:10:39.300Z,61.23
2018-07-27T05:11:39.334Z,61.76
2018-07-27T05:12:39.326Z,61.34
2018-07-27T05:13:39.293Z,61.39
2018-07-27T05:14:39.312Z,60.72
2018-07-27T05:15:39.307Z,60.67
2018-07-27T05:16:39.430Z,60.66
2018-07-27T05:17:39.289Z,60.79
2018-07-27T05:18:39.404Z,60.41
2018-07-27T05:19:39.301Z,60.71
2018-07-27T05:20:39.357Z,60.01
2018-07-27T05:21:39.315Z,59.9
2018-07-27T05:22:39.320Z,59.67
2018-07-27T05:23:39.326Z,60.75
2018-07-27T05:24:39.402Z,60.24
2018-07-27T05:25:39.346Z,59.9
2018-07-27T05:26:39.378Z,61.05
2018-07-27T05:27:39.326Z,60.81
2018-07-27T05:28:39.551Z,60.34
2018-07-27T05:29:39.371Z,60.89
2018-07-27T05:30:39.361Z,60.18
2018-07-27T05:31:39.356Z,59.83
2018-07-27T05:32:39.326Z,58.08
2018-07-27T05:33:39.338Z,57.98
2018-07-27T05:34:39.478Z,58.39
2018-07-27T05:35:39.348Z,57.83
2018-07-27T05:36:39.335Z,57.7
2018-07-27T05:37:39.410Z,57.33
2018-07-27T05:38:39.589Z,57.47
2018-07-27T05:39:39.430Z,57.22
2018-07-27T05:40:39.345Z,57.11
2018-07-27T05:41:39.337Z,56.77
2018-07-27T05:42:39.339Z,56.02
2018-07-27T05:43:39.349Z,56.23
2018-07-27T05:44:39.369Z,55.93
2018-07-27T05:45:39.413Z,55.61
2018-07-27T05:46:39.399Z,55.36
2018-07-27T05:47:39.343Z,55.64
2018-07-27T05:48:39.348Z,55.05
2018-07-27T05:49:39.495Z,55.44
2018-07-27T05:50:39.341Z,55.17
2018-07-27T05:51:39.401Z,54.86
2018-07-27T05:52:39.346Z,54.88
2018-07-27T05:53:39.363Z,54.69
2018-07-27T05:54:39.357Z,54.71
2018-07-27T05:55:39.375Z,54.66
2018-07-27T05:56:39.349Z,54.39
2018-07-27T05:57:39.348Z,54.81
2018-07-27T05:58:39.407Z,55.32
2018-07-27T05:59:39.386Z,54.82
2018-07-27T06:00:39.377Z,54.84
2018-07-27T06:01:39.377Z,54.98
2018-07-27T06:02:39.387Z,54.5
2018-07-27T06:03:39.396Z,54.29
2018-07-27T06:04:39.395Z,54.28
2018-07-27T06:05:39.365Z,54.04
2018-07-27T06:06:39.365Z,53.95
2018-07-27T06:07:39.376Z,53.69
2018-07-27T06:08:39.403Z,53.63
2018-07-27T06:09:39.373Z,53.64
2018-07-27T06:10:39.376Z,53.66
2018-07-27T06:11:39.397Z,53.79
2018-07-27T06:12:39.409Z,53
2018-07-27T06:13:39.404Z,53.01
2018-07-27T06:14:39.382Z,53.05
2018-07-27T06:15:39.460Z,52.77
2018-07-27T06:16:39.412Z,52.82
2018-07-27T06:17:39.381Z,52.59
2018-07-27T06:18:39.387Z,52.73
2018-07-27T06:19:39.618Z,52.67
2018-07-27T06:20:39.389Z,52.55
2018-07-27T06:21:39.415Z,52.62
2018-07-27T06:22:39.380Z,52.75
2018-07-27T06:23:39.430Z,52.66
2018-07-27T06:24:39.475Z,52.69
2018-07-27T06:25:39.442Z,52.74
2018-07-27T06:26:39.741Z,52.76
2018-07-27T06:27:39.456Z,52.7
2018-07-27T06:28:39.450Z,52.42
2018-07-27T06:29:39.567Z,52.38
2018-07-27T06:30:39.415Z,52.37
2018-07-27T06:31:39.473Z,52.51
2018-07-27T06:32:40.002Z,52.16
2018-07-27T06:33:39.412Z,52.62
2018-07-27T06:34:39.438Z,52.34
2018-07-27T06:35:39.404Z,52.13
2018-07-27T06:36:39.511Z,52.16
2018-07-27T06:37:39.435Z,52.06
2018-07-27T06:38:39.567Z,52.41
2018-07-27T06:39:39.429Z,52.22
2018-07-27T06:40:39.426Z,51.88
2018-07-27T06:41:39.427Z,51.84
2018-07-27T06:42:39.559Z,51.64
2018-07-27T06:43:39.475Z,51.62
2018-07-27T06:44:39.586Z,52.08
2018-07-27T06:45:39.418Z,51.82
2018-07-27T06:46:39.456Z,51.91
2018-07-27T06:47:39.428Z,52.56
2018-07-27T06:48:39.422Z,52.36
2018-07-27T06:49:39.421Z,52.3
2018-07-27T06:50:39.538Z,52.2
2018-07-27T06:51:39.452Z,52.02
2018-07-27T06:52:39.436Z,51.81
2018-07-27T06:53:39.512Z,52.16
2018-07-27T06:54:39.469Z,51.83
2018-07-27T06:55:39.534Z,51.86
2018-07-27T06:56:39.577Z,52.29
2018-07-27T06:57:39.502Z,52.22
2018-07-27T06:58:39.477Z,51.63
2018-07-27T06:59:39.426Z,51.93
2018-07-27T07:00:39.552Z,52.11
2018-07-27T07:01:39.457Z,51.57
2018-07-27T07:02:39.427Z,51.11
2018-07-27T07:03:39.525Z,51.03
2018-07-27T07:04:39.425Z,51.19
2018-07-27T07:05:39.521Z,51.7
2018-07-27T07:06:39.461Z,51.49
2018-07-27T07:07:39.511Z,51.47
2018-07-27T07:08:39.443Z,52.05
2018-07-27T07:09:39.446Z,51.3
2018-07-27T07:10:39.453Z,51.09
2018-07-27T07:11:39.440Z,50.51
2018-07-27T07:12:39.443Z,49.7
2018-07-27T07:13:39.471Z,50.2
2018-07-27T07:14:39.472Z,50.05
2018-07-27T07:15:39.464Z,49.93
2018-07-27T07:16:41.733Z,49.97
2018-07-27T07:17:39.420Z,49.73
2018-07-27T07:18:39.486Z,49.63
2018-07-27T07:19:39.461Z,49.27
2018-07-27T07:20:39.463Z,48.63
2018-07-27T07:21:39.442Z,48.54
2018-07-27T07:22:39.447Z,48.53
2018-07-27T07:23:39.465Z,48.77
2018-07-27T07:24:39.471Z,48.65
2018-07-27T07:25:39.676Z,49.26
2018-07-27T07:26:39.458Z,48.61
2018-07-27T07:27:39.490Z,48.03
2018-07-27T07:28:39.458Z,47.98
2018-07-27T07:29:39.460Z,47.76
2018-07-27T07:30:39.463Z,47.99
2018-07-27T07:31:39.449Z,47.82
2018-07-27T07:32:39.464Z,47.19
2018-07-27T07:33:39.504Z,47.5
2018-07-27T07:34:39.448Z,47.38
2018-07-27T07:35:39.449Z,47.68
2018-07-27T07:36:39.560Z,47.58
2018-07-27T07:37:39.529Z,46.95
2018-07-27T07:38:39.482Z,47.27
2018-07-27T07:39:39.561Z,46.96
2018-07-27T07:40:39.552Z,46.6
2018-07-27T07:41:39.488Z,46.79
2018-07-27T07:42:39.626Z,46.59
2018-07-27T07:43:39.545Z,46.68
2018-07-27T07:44:39.517Z,47.1
2018-07-27T07:45:44.605Z,47.31
2018-07-27T07:46:39.502Z,47.63
2018-07-27T07:47:39.510Z,47.44
2018-07-27T07:48:39.563Z,46.73
2018-07-27T07:49:39.480Z,46.6
2018-07-27T07:50:39.503Z,46.66
2018-07-27T07:51:39.495Z,46.66
2018-07-27T07:52:39.531Z,46.91
2018-07-27T07:53:39.526Z,46.82
2018-07-27T07:54:39.490Z,46.43
2018-07-27T07:55:39.508Z,46.58
2018-07-27T07:56:39.604Z,46.86
2018-07-27T07:57:39.494Z,47.11
2018-07-27T07:58:39.644Z,47
2018-07-27T07:59:39.498Z,47.02
2018-07-27T08:00:39.494Z,46.73
2018-07-27T08:01:39.502Z,46.65
2018-07-27T08:02:39.600Z,46.54
2018-07-27T08:03:39.516Z,46.6
2018-07-27T08:04:39.542Z,46.5
2018-07-27T08:05:39.583Z,46.62
2018-07-27T08:06:39.521Z,46.61
2018-07-27T08:07:39.517Z,46.9
2018-07-27T08:08:39.649Z,45.86
2018-07-27T08:09:39.562Z,45.56
2018-07-27T08:10:39.649Z,45.73
2018-07-27T08:11:39.594Z,45.56
2018-07-27T08:12:39.520Z,45.75
2018-07-27T08:13:39.517Z,45.69
2018-07-27T08:14:39.507Z,46.12
2018-07-27T08:15:39.591Z,46.01
2018-07-27T08:16:39.536Z,46.53
2018-07-27T08:17:39.647Z,46.3
2018-07-27T08:18:39.519Z,46.18
2018-07-27T08:19:39.522Z,46.4
2018-07-27T08:20:39.530Z,46.62
2018-07-27T08:21:39.681Z,46.11
2018-07-27T08:22:39.548Z,46.45
2018-07-27T08:23:39.575Z,46.59
2018-07-27T08:24:39.503Z,46.82
2018-07-27T08:25:39.560Z,46.6
2018-07-27T08:26:39.541Z,46.09
2018-07-27T08:27:39.535Z,45.66
2018-07-27T08:28:39.542Z,45.7
2018-07-27T08:29:39.549Z,46.33
2018-07-27T08:30:39.544Z,45.96
2018-07-27T08:31:39.524Z,45.84
2018-07-27T08:32:39.583Z,45.78
2018-07-27T08:33:39.539Z,45.35
2018-07-27T08:34:39.541Z,44.96
2018-07-27T08:35:39.544Z,45.03
2018-07-27T08:36:39.547Z,45.15
2018-07-27T08:37:39.563Z,45.39
2018-07-27T08:38:39.555Z,45.26
2018-07-27T08:39:39.603Z,45.01
2018-07-27T08:40:39.587Z,45.5
2018-07-27T08:41:39.563Z,44.79
2018-07-27T08:42:39.812Z,45.05
2018-07-27T08:43:39.592Z,44.91
2018-07-27T08:44:39.549Z,44.56
2018-07-27T08:45:39.539Z,44.79
2018-07-27T08:46:39.598Z,44.75
2018-07-27T08:47:39.876Z,44.37
2018-07-27T08:48:39.789Z,44.67
2018-07-27T08:49:39.554Z,44.72
2018-07-27T08:50:39.561Z,44.67
2018-07-27T08:51:39.579Z,44.51
2018-07-27T08:52:39.570Z,44.67
2018-07-27T08:53:39.679Z,44.81
2018-07-27T08:54:39.585Z,44.86
2018-07-27T08:55:39.663Z,44.5
2018-07-27T08:56:39.615Z,44.9
2018-07-27T08:57:39.581Z,44.87
2018-07-27T08:58:39.797Z,44.48
2018-07-27T08:59:39.607Z,44.73
2018-07-27T09:00:39.721Z,44.7
2018-07-27T09:01:39.643Z,44.44
2018-07-27T09:02:39.611Z,44.81
2018-07-27T09:03:39.629Z,44.34
2018-07-27T09:04:39.613Z,44.53
2018-07-27T09:05:39.608Z,44.49
2018-07-27T09:06:39.588Z,44.12
2018-07-27T09:07:39.657Z,44.13
2018-07-27T09:08:39.857Z,44.29
2018-07-27T09:09:39.589Z,44.86
2018-07-27T09:10:39.586Z,44.57
2018-07-27T09:11:39.663Z,44.39
2018-07-27T09:12:39.590Z,44.04
2018-07-27T09:13:39.727Z,44.21
2018-07-27T09:14:39.641Z,43.64
2018-07-27T09:15:39.618Z,43.01
2018-07-27T09:16:39.668Z,43.4
2018-07-27T09:17:39.648Z,43.37
2018-07-27T09:18:39.608Z,43.4
2018-07-27T09:19:39.657Z,43.71
2018-07-27T09:20:39.604Z,43.05
2018-07-27T09:21:39.938Z,42.94
2018-07-27T09:22:39.608Z,42.75
2018-07-27T09:23:39.775Z,42.77
2018-07-27T09:24:39.763Z,42.63
2018-07-27T09:25:39.659Z,42.86
2018-07-27T09:26:39.613Z,42.86
2018-07-27T09:27:39.679Z,42.27
2018-07-27T09:28:39.667Z,42.03
2018-07-27T09:29:39.594Z,42.1
2018-07-27T09:30:39.695Z,42.25
2018-07-27T09:31:39.609Z,41.85
2018-07-27T09:32:39.623Z,41.43
2018-07-27T09:33:39.609Z,40.71
2018-07-27T09:34:40.021Z,40.82
2018-07-27T09:35:39.799Z,41.4
2018-07-27T09:36:39.634Z,41.29
2018-07-27T09:37:39.740Z,41.13
2018-07-27T09:38:39.624Z,41.05
2018-07-27T09:39:39.747Z,41.07
2018-07-27T09:40:39.606Z,40.5
2018-07-27T09:41:39.630Z,40.25
2018-07-27T09:42:39.647Z,40.69
2018-07-27T09:43:39.659Z,40.67
2018-07-27T09:44:39.629Z,40.67
2018-07-27T09:45:39.603Z,40.73
2018-07-27T09:46:39.688Z,40.97
2018-07-27T09:47:39.626Z,40.72
2018-07-27T09:48:39.909Z,40.38
2018-07-27T09:49:39.641Z,40.32
2018-07-27T09:50:39.640Z,40.58
2018-07-27T09:51:39.749Z,40.57
2018-07-27T09:52:39.671Z,40.11
2018-07-27T09:53:39.939Z,39.76
2018-07-27T09:54:39.654Z,39.75
2018-07-27T09:55:39.665Z,39.76
2018-07-27T09:56:39.658Z,39.35
2018-07-27T09:57:39.671Z,39.28
2018-07-27T09:58:39.635Z,38.98
2018-07-27T09:59:37.900Z,39.32
2018-07-27T10:00:37.925Z,39.3
2018-07-27T10:01:37.955Z,38.45
2018-07-27T10:02:38.602Z,38.5
2018-07-27T10:03:37.881Z,38.34
2018-07-27T10:04:38.006Z,38.26
2018-07-27T10:05:37.959Z,37.85
2018-07-27T10:06:37.981Z,38.26
2018-07-27T10:07:37.938Z,38.56
2018-07-27T10:08:37.946Z,38.61
2018-07-27T10:09:37.918Z,38.45
2018-07-27T10:10:38.332Z,38.06
2018-07-27T10:11:37.898Z,38.35
2018-07-27T10:12:38.079Z,38.63
2018-07-27T10:13:37.913Z,38.85
2018-07-27T10:14:38.033Z,38.93
2018-07-27T10:15:37.948Z,38.97
2018-07-27T10:16:38.365Z,39.23
2018-07-27T10:17:38.024Z,38.99
2018-07-27T10:18:37.894Z,38.7
2018-07-27T10:19:38.283Z,38.17
2018-07-27T10:20:38.061Z,37.59
2018-07-27T10:21:38.294Z,38.12
2018-07-27T10:22:37.969Z,37.3
2018-07-27T10:23:37.961Z,37.22
2018-07-27T10:24:37.899Z,37.74
2018-07-27T10:25:38.011Z,37.87
2018-07-27T10:26:37.899Z,37.3
2018-07-27T10:27:37.945Z,37.37
2018-07-27T10:28:37.935Z,37.15
2018-07-27T10:29:37.899Z,37.33
2018-07-27T10:30:37.906Z,37.06
2018-07-27T10:31:37.897Z,37.05
2018-07-27T10:32:37.912Z,36.15
2018-07-27T10:33:37.942Z,36.29
2018-07-27T10:34:37.951Z,36.72
2018-07-27T10:35:37.964Z,36.6
2018-07-27T10:36:38.392Z,36.72
2018-07-27T10:37:37.985Z,36.81
2018-07-27T10:38:38.024Z,36.84
2018-07-27T10:39:37.965Z,36.78
2018-07-27T10:40:37.972Z,36.61
2018-07-27T10:41:37.914Z,36.65
2018-07-27T10:42:37.968Z,36.6
2018-07-27T10:43:37.885Z,36
2018-07-27T10:44:37.945Z,35.4
2018-07-27T10:45:37.944Z,35.34
2018-07-27T10:46:37.888Z,36.2
2018-07-27T10:47:37.903Z,35.17
2018-07-27T10:48:37.918Z,35.09
2018-07-27T10:49:37.894Z,35.13
2018-07-27T10:50:38.292Z,34.91
2018-07-27T10:51:37.903Z,35.3
2018-07-27T10:52:37.928Z,35.03
2018-07-27T10:53:39.559Z,35.15
2018-07-27T10:54:38.317Z,34.85
2018-07-27T10:55:37.917Z,34.53
2018-07-27T10:56:37.884Z,34.76
2018-07-27T10:57:37.963Z,34.49
2018-07-27T10:58:37.942Z,34.27
2018-07-27T10:59:37.894Z,34.92
2018-07-27T11:00:37.888Z,34.65
2018-07-27T11:01:37.896Z,34.89
2018-07-27T11:02:38.260Z,34.8
2018-07-27T11:03:37.900Z,35.14
2018-07-27T11:04:37.886Z,34.93
2018-07-27T11:05:37.922Z,35.05
2018-07-27T11:06:37.902Z,34.73
2018-07-27T11:07:37.941Z,34.48
2018-07-27T11:08:37.945Z,35.04
2018-07-27T11:09:37.909Z,35.31
2018-07-27T11:10:37.901Z,34.66
2018-07-27T11:11:37.897Z,34.86
2018-07-27T11:12:38.020Z,34.67
2018-07-27T11:13:37.887Z,34.14
2018-07-27T11:14:37.889Z,34.19
2018-07-27T11:15:37.889Z,34.11
2018-07-27T11:16:37.923Z,34.51
2018-07-27T11:17:38.055Z,33.24
2018-07-27T11:18:38.025Z,33
2018-07-27T11:19:38.046Z,33.06
2018-07-27T11:20:37.909Z,33.39
2018-07-27T11:21:37.968Z,33.49
2018-07-27T11:22:37.903Z,33.84
2018-07-27T11:23:37.901Z,33.35
2018-07-27T11:24:37.903Z,33.74
2018-07-27T11:25:37.929Z,33.46
2018-07-27T11:26:37.950Z,33.05
2018-07-27T11:27:37.934Z,33.04
2018-07-27T11:28:37.933Z,33.19
2018-07-27T11:29:37.935Z,33.7
2018-07-27T11:30:37.951Z,33.35
2018-07-27T11:31:37.934Z,33.33
2018-07-27T11:32:37.942Z,33.64
2018-07-27T11:33:37.896Z,33.94
2018-07-27T11:34:37.974Z,33.87
2018-07-27T11:35:37.902Z,32.7
2018-07-27T11:36:37.882Z,33.16
2018-07-27T11:37:37.948Z,33.67
2018-07-27T11:38:37.905Z,33.41
2018-07-27T11:39:37.889Z,32.8
2018-07-27T11:40:38.126Z,31.88
2018-07-27T11:41:37.915Z,32.1
2018-07-27T11:42:37.897Z,32.24
2018-07-27T11:43:37.937Z,33.01
2018-07-27T11:44:38.026Z,33.27
2018-07-27T11:45:38.050Z,32.65
2018-07-27T11:46:38.087Z,32.06
2018-07-27T11:47:37.904Z,32.58
2018-07-27T11:48:37.885Z,32.2
2018-07-27T11:49:37.881Z,31.89
2018-07-27T11:50:37.898Z,31.22
2018-07-27T11:51:37.905Z,31.44
2018-07-27T11:52:37.897Z,31.51
2018-07-27T11:53:37.918Z,30.39
2018-07-27T11:54:38.018Z,30.94
2018-07-27T11:55:38.015Z,30.38
2018-07-27T11:56:37.959Z,30.17
2018-07-27T11:57:38.029Z,30.12
2018-07-27T11:58:38.240Z,30.82
2018-07-27T11:59:38.041Z,30.07
2018-07-27T12:00:38.251Z,30.49
2018-07-27T12:01:38.419Z,30.42
2018-07-27T12:02:38.085Z,30.67
2018-07-27T12:03:38.073Z,29.99
2018-07-27T12:04:38.094Z,29.32
2018-07-27T12:05:37.980Z,28.51
2018-07-27T12:06:38.128Z,29.54
2018-07-27T12:07:37.992Z,28.65
2018-07-27T12:08:38.104Z,28.49
2018-07-27T12:09:38.019Z,27.78
2018-07-27T12:10:38.081Z,26.62
2018-07-27T12:11:39.051Z,26.62
2018-07-27T12:12:37.928Z,26.1
2018-07-27T12:13:38.042Z,26.29
2018-07-27T12:14:38.305Z,26.24
2018-07-27T12:15:38.048Z,26.46
2018-07-27T12:16:37.952Z,26.01
2018-07-27T12:17:37.921Z,25.88
2018-07-27T12:18:38.068Z,26.28
2018-07-27T12:19:37.972Z,26.33
2018-07-27T12:20:37.939Z,25.92
2018-07-27T12:21:38.331Z,26
2018-07-27T12:22:37.901Z,26.17
2018-07-27T12:23:37.981Z,26.63
2018-07-27T12:24:37.991Z,26.53
2018-07-27T12:25:37.873Z,26.58
2018-07-27T12:26:38.131Z,27.62
2018-07-27T12:27:37.921Z,27.02
2018-07-27T12:28:37.882Z,27.41
2018-07-27T12:29:37.925Z,26.29
2018-07-27T12:30:38.364Z,26.1
2018-07-27T12:31:37.914Z,25.99
2018-07-27T12:32:37.960Z,26.07
2018-07-27T12:33:37.881Z,26.04
2018-07-27T12:34:38.074Z,26.29
2018-07-27T12:35:37.890Z,25.57
2018-07-27T12:36:37.925Z,26.27
2018-07-27T12:37:38.402Z,26.64
2018-07-27T12:38:38.038Z,26.22
2018-07-27T12:39:37.954Z,26.22
2018-07-27T12:40:38.130Z,26
2018-07-27T12:41:37.868Z,25.22
2018-07-27T12:42:38.115Z,25.11
2018-07-27T12:43:37.887Z,25.25
2018-07-27T12:44:38.251Z,25.77
2018-07-27T12:45:37.928Z,26.05
2018-07-27T12:46:38.045Z,24.94
2018-07-27T12:47:38.002Z,25.28
2018-07-27T12:48:38.070Z,24.3
2018-07-27T12:49:37.889Z,23.72
2018-07-27T12:50:38.021Z,23.7
2018-07-27T12:51:37.992Z,23.95
2018-07-27T12:52:37.892Z,24.27
2018-07-27T12:53:37.937Z,24.15
2018-07-27T12:54:37.953Z,24.59
2018-07-27T12:55:37.938Z,23.32
2018-07-27T12:56:37.878Z,23.19